createdAt,value
2018-11-13T00:02:21.936Z,100945.72
2018-11-13T00:04:50.172Z,100960.72
2018-11-13T00:07:18.336Z,100958.98
2018-11-13T00:09:46.545Z,100957.09
2018-11-13T00:12:14.650Z,100960.50
2018-11-13T00:14:44.107Z,100952.26
2018-11-13T00:17:12.216Z,100948.85
2018-11-13T00:19:40.325Z,100960.62
2018-11-13T00:22:08.621Z,100975.63
2018-11-13T00:24:36.986Z,100974.28
2018-11-13T00:27:05.363Z,100957.22
2018-11-13T00:29:33.884Z,100959.91
2018-11-13T00:32:01.731Z,100970.88
2018-11-13T00:34:29.853Z,100970.25
2018-11-13T00:36:57.928Z,100967.14
2018-11-13T00:39:26.060Z,100953.99
2018-11-13T00:41:54.164Z,100961.65
2018-11-13T00:44:22.338Z,100954.71
2018-11-13T00:46:50.497Z,100944.08
2018-11-13T00:49:18.651Z,100955.97
2018-11-13T00:51:46.753Z,100964.36
2018-11-13T00:54:14.859Z,100975.63
2018-11-13T00:56:42.952Z,100994.84
2018-11-13T00:59:11.102Z,100996.81
2018-11-13T01:01:39.217Z,100998.70
2018-11-13T01:04:07.332Z,101010.17
2018-11-13T01:06:35.502Z,101026.40
2018-11-13T01:09:03.940Z,101033.84
2018-11-13T01:11:32.043Z,101037.45
2018-11-13T01:14:00.152Z,101036.95
2018-11-13T01:16:28.273Z,101036.08
2018-11-13T01:18:56.394Z,101031.75
2018-11-13T01:21:24.500Z,101030.31
2018-11-13T01:23:52.624Z,101037.21
2018-11-13T01:26:20.812Z,101041.07
2018-11-13T01:28:48.878Z,101052.25
2018-11-13T01:31:16.950Z,101046.48
2018-11-13T01:33:45.054Z,101042.53
2018-11-13T01:36:13.766Z,101041.22
2018-11-13T01:38:41.851Z,101035.72
2018-11-13T01:41:09.957Z,101041.07
2018-11-13T01:43:38.049Z,101040.08
2018-11-13T01:46:06.199Z,101042.89
2018-11-13T01:48:34.299Z,101041.78
2018-11-13T01:51:02.395Z,101043.72
2018-11-13T01:53:30.516Z,101050.74
2018-11-13T01:55:58.606Z,101031.92
2018-11-13T01:58:26.684Z,101030.40
2018-11-13T02:00:54.782Z,101025.53
2018-11-13T02:03:22.864Z,101024.48
2018-11-13T02:05:50.990Z,101026.21
2018-11-13T02:08:19.125Z,101025.38
2018-11-13T02:10:47.234Z,101023.19
2018-11-13T02:13:15.323Z,101018.14
2018-11-13T02:15:43.418Z,101023.61
2018-11-13T02:18:11.668Z,101023.94
2018-11-13T02:20:39.824Z,101036.30
2018-11-13T02:23:07.962Z,101047.00
2018-11-13T02:25:36.085Z,101061.57
2018-11-13T02:28:04.179Z,101068.80
2018-11-13T02:30:32.284Z,101067.45
2018-11-13T02:33:00.479Z,101062.88
2018-11-13T02:35:28.668Z,101062.58
2018-11-13T02:37:56.795Z,101074.42
2018-11-13T02:40:24.965Z,101087.92
2018-11-13T02:42:53.091Z,101091.74
2018-11-13T02:45:21.239Z,101084.37
2018-11-13T02:47:49.438Z,101081.02
2018-11-13T02:50:19.873Z,101073.03
2018-11-13T02:52:48.027Z,101077.45
2018-11-13T02:55:16.358Z,101079.45
2018-11-13T02:57:45.076Z,101082.84
2018-11-13T03:00:15.057Z,101099.54
2018-11-13T03:02:43.186Z,101108.30
2018-11-13T03:05:15.793Z,101104.47
2018-11-13T03:07:43.935Z,101091.41
2018-11-13T03:10:13.391Z,101099.68
2018-11-13T03:12:41.488Z,101109.98
2018-11-13T03:15:17.721Z,101124.83
2018-11-13T03:17:45.948Z,101127.17
2018-11-13T03:20:15.263Z,101108.02
2018-11-13T03:22:43.923Z,101104.42
2018-11-13T03:25:16.741Z,101117.27
2018-11-13T03:27:44.865Z,101122.77
2018-11-13T03:30:16.759Z,101137.57
2018-11-13T03:32:45.103Z,101127.30
2018-11-13T03:35:13.283Z,101123.85
2018-11-13T03:37:41.539Z,101117.54
2018-11-13T03:40:10.413Z,101112.97
2018-11-13T03:42:38.705Z,101108.88
2018-11-13T03:45:07.437Z,101100.55
2018-11-13T03:47:35.607Z,101093.98
2018-11-13T03:50:03.769Z,101099.10
2018-11-13T03:52:31.941Z,101115.20
2018-11-13T03:55:00.079Z,101130.84
2018-11-13T03:57:28.206Z,101135.31
2018-11-13T03:59:56.346Z,101136.71
2018-11-13T04:02:24.504Z,101142.27
2018-11-13T04:04:52.675Z,101143.50
2018-11-13T04:07:20.799Z,101142.52
2018-11-13T04:09:48.983Z,101149.03
2018-11-13T04:12:17.092Z,101145.27
2018-11-13T04:14:45.230Z,101146.18
2018-11-13T04:17:13.378Z,101158.84
2018-11-13T04:19:41.515Z,101157.16
2018-11-13T04:22:09.640Z,101152.23
2018-11-13T04:24:37.750Z,101160.60
2018-11-13T04:27:05.865Z,101157.03
2018-11-13T04:29:34.078Z,101152.53
2018-11-13T04:32:02.216Z,101149.84
2018-11-13T04:34:30.376Z,101151.02
2018-11-13T04:36:58.553Z,101153.81
2018-11-13T04:39:26.702Z,101162.22
2018-11-13T04:41:54.851Z,101163.22
2018-11-13T04:44:23.016Z,101170.62
2018-11-13T04:46:51.220Z,101178.31
2018-11-13T04:49:19.352Z,101176.97
2018-11-13T04:51:47.509Z,101174.54
2018-11-13T04:54:15.579Z,101168.78
2018-11-13T04:56:43.723Z,101159.64
2018-11-13T04:59:11.884Z,101157.46
2018-11-13T05:01:39.984Z,101158.16
2018-11-13T05:04:08.084Z,101160.78
2018-11-13T05:06:36.212Z,101159.34
2018-11-13T05:09:05.539Z,101165.88
2018-11-13T05:11:33.940Z,101179.85
2018-11-13T05:14:02.049Z,101185.96
2018-11-13T05:16:30.160Z,101195.56
2018-11-13T05:18:58.269Z,101198.53
2018-11-13T05:21:26.376Z,101192.92
2018-11-13T05:23:54.517Z,101195.14
2018-11-13T05:26:22.563Z,101208.38
2018-11-13T05:28:50.676Z,101205.05
2018-11-13T05:31:18.975Z,101210.75
2018-11-13T05:33:47.095Z,101213.04
2018-11-13T05:36:15.186Z,101210.60
2018-11-13T05:38:43.260Z,101216.20
2018-11-13T05:41:12.383Z,101227.79
2018-11-13T05:43:40.478Z,101222.52
2018-11-13T05:46:08.591Z,101221.59
2018-11-13T05:48:36.775Z,101217.11
2018-11-13T05:51:05.241Z,101222.81
2018-11-13T05:53:33.387Z,101220.23
2018-11-13T05:56:08.076Z,101225.45
2018-11-13T05:58:36.258Z,101227.70
2018-11-13T06:01:04.446Z,101236.18
2018-11-13T06:03:32.540Z,101235.64
2018-11-13T06:06:00.692Z,101247.12
2018-11-13T06:08:29.900Z,101249.99
2018-11-13T06:10:58.293Z,101249.95
2018-11-13T06:13:26.379Z,101250.59
2018-11-13T06:15:54.484Z,101251.73
2018-11-13T06:18:22.624Z,101243.67
2018-11-13T06:20:50.724Z,101243.98
2018-11-13T06:23:18.877Z,101242.64
2018-11-13T06:25:46.975Z,101249.34
2018-11-13T06:28:15.084Z,101249.24
2018-11-13T06:30:43.215Z,101262.09
2018-11-13T06:33:11.339Z,101260.44
2018-11-13T06:35:39.431Z,101275.38
2018-11-13T06:38:07.554Z,101274.80
2018-11-13T06:40:35.658Z,101278.26
2018-11-13T06:43:03.768Z,101281.63
2018-11-13T06:45:31.926Z,101294.03
2018-11-13T06:48:00.102Z,101305.56
2018-11-13T06:50:28.193Z,101305.95
2018-11-13T06:52:56.374Z,101315.55
2018-11-13T06:55:29.765Z,101318.66
2018-11-13T06:57:57.867Z,101316.82
2018-11-13T07:00:25.988Z,101314.95
2018-11-13T07:02:54.159Z,101322.99
2018-11-13T07:05:22.272Z,101323.64
2018-11-13T07:07:50.486Z,101329.81
2018-11-13T07:10:19.996Z,101344.12
2018-11-13T07:12:49.184Z,101358.80
2018-11-13T07:15:21.451Z,101367.26
2018-11-13T07:17:50.872Z,101379.29
2018-11-13T07:20:20.051Z,101378.60
2018-11-13T07:22:48.204Z,101381.94
2018-11-13T07:25:16.331Z,101377.08
2018-11-13T07:27:44.882Z,101371.74
2018-11-13T07:30:14.201Z,101371.21
2018-11-13T07:32:42.373Z,101375.42
2018-11-13T07:35:11.864Z,101376.95
2018-11-13T07:37:41.788Z,101381.63
2018-11-13T07:40:10.076Z,101385.80
2018-11-13T07:42:38.172Z,101381.47
2018-11-13T07:45:08.668Z,101377.48
2018-11-13T07:47:36.850Z,101369.59
2018-11-13T07:50:06.047Z,101393.91
2018-11-13T07:52:34.391Z,101410.78
2018-11-13T07:55:02.480Z,101448.03
2018-11-13T07:57:30.583Z,101449.06
2018-11-13T07:59:58.709Z,101446.47
2018-11-13T08:02:26.800Z,101439.05
2018-11-13T08:04:54.952Z,101439.58
2018-11-13T08:07:23.200Z,101437.46
2018-11-13T08:09:51.296Z,101444.95
2018-11-13T08:12:19.419Z,101438.03
2018-11-13T08:14:47.732Z,101462.00
2018-11-13T08:17:15.849Z,101468.23
2018-11-13T08:19:43.980Z,101453.14
2018-11-13T08:22:12.136Z,101449.53
2018-11-13T08:24:40.174Z,101462.28
2018-11-13T08:27:08.297Z,101478.75
2018-11-13T08:29:36.417Z,101500.25
2018-11-13T08:32:04.548Z,101502.88
2018-11-13T08:34:32.669Z,101503.88
2018-11-13T08:37:00.752Z,101499.91
2018-11-13T08:39:28.823Z,101496.28
2018-11-13T08:41:56.926Z,101509.64
2018-11-13T08:44:25.041Z,101484.77
2018-11-13T08:46:53.112Z,101481.30
2018-11-13T08:49:21.198Z,101509.93
2018-11-13T08:51:49.293Z,101507.45
2018-11-13T08:54:17.391Z,101514.37
2018-11-13T08:56:45.493Z,101523.55
2018-11-13T08:59:13.784Z,101520.52
2018-11-13T09:01:41.756Z,101524.02
2018-11-13T09:04:09.843Z,101519.68
2018-11-13T09:06:37.974Z,101523.05
2018-11-13T09:09:09.028Z,101521.34
2018-11-13T09:11:37.270Z,101539.58
2018-11-13T09:14:05.292Z,101544.47
2018-11-13T09:16:33.549Z,101547.47
2018-11-13T09:19:01.698Z,101548.31
2018-11-13T09:21:29.740Z,101559.78
2018-11-13T09:23:57.836Z,101563.47
2018-11-13T09:26:26.161Z,101565.98
2018-11-13T09:28:54.437Z,101566.88
2018-11-13T09:31:22.607Z,101576.24
2018-11-13T09:33:50.723Z,101575.49
2018-11-13T09:36:18.904Z,101578.25
2018-11-13T09:38:47.012Z,101578.75
2018-11-13T09:41:15.105Z,101580.69
2018-11-13T09:43:43.208Z,101582.83
2018-11-13T09:46:11.290Z,101582.95
2018-11-13T09:48:39.380Z,101594.12
2018-11-13T09:51:07.485Z,101590.55
2018-11-13T09:53:35.630Z,101588.16
2018-11-13T09:56:03.712Z,101589.26
2018-11-13T09:58:31.884Z,101586.69
2018-11-13T10:01:00.269Z,101593.20
2018-11-13T10:03:28.562Z,101596.92
2018-11-13T10:05:56.162Z,101599.63
2018-11-13T10:08:24.303Z,101595.04
2018-11-13T10:10:52.508Z,101592.95
2018-11-13T10:13:20.568Z,101590.60
2018-11-13T10:15:48.640Z,101603.83
2018-11-13T10:18:16.988Z,101596.72
2018-11-13T10:20:44.854Z,101593.28
2018-11-13T10:23:12.966Z,101603.42
2018-11-13T10:25:41.107Z,101605.81
2018-11-13T10:28:09.305Z,101607.59
2018-11-13T10:30:37.372Z,101606.09
2018-11-13T10:33:05.692Z,101600.47
2018-11-13T10:35:33.809Z,101598.34
2018-11-13T10:38:01.916Z,101597.66
2018-11-13T10:40:30.112Z,101590.00
2018-11-13T10:42:58.084Z,101597.37
2018-11-13T10:45:27.455Z,101593.54
2018-11-13T10:47:55.562Z,101598.94
2018-11-13T10:50:25.039Z,101599.87
2018-11-13T10:52:53.126Z,101590.02
2018-11-13T10:55:21.291Z,101585.67
2018-11-13T10:57:49.416Z,101592.10
2018-11-13T11:00:22.823Z,101582.77
2018-11-13T11:02:53.984Z,101587.36
2018-11-13T11:05:24.188Z,101585.80
2018-11-13T11:07:52.465Z,101579.67
2018-11-13T11:10:20.583Z,101586.92
2018-11-13T11:12:48.797Z,101587.45
2018-11-13T11:15:16.867Z,101595.07
2018-11-13T11:17:44.965Z,101592.67
2018-11-13T11:20:13.627Z,101598.59
2018-11-13T11:22:41.784Z,101586.92
2018-11-13T11:25:11.221Z,101584.98
2018-11-13T11:27:39.392Z,101586.11
2018-11-13T11:30:09.289Z,101578.19
2018-11-13T11:32:37.381Z,101579.68
2018-11-13T11:35:06.325Z,101578.71
2018-11-13T11:37:34.441Z,101575.84
2018-11-13T11:40:02.564Z,101572.25
2018-11-13T11:42:30.670Z,101568.00
2018-11-13T11:44:59.029Z,101569.28
2018-11-13T11:47:27.255Z,101584.94
2018-11-13T11:49:55.420Z,101588.16
2018-11-13T11:52:23.508Z,101592.58
2018-11-13T11:54:51.686Z,101597.26
2018-11-13T11:57:19.788Z,101589.02
2018-11-13T11:59:47.934Z,101600.56
2018-11-13T12:02:16.057Z,101596.91
2018-11-13T12:04:44.214Z,101602.52
2018-11-13T12:07:12.316Z,101606.51
2018-11-13T12:09:40.407Z,101608.31
2018-11-13T12:12:08.511Z,101607.50
2018-11-13T12:14:43.235Z,101612.77
2018-11-13T12:17:11.357Z,101604.05
2018-11-13T12:19:39.517Z,101607.81
2018-11-13T12:22:07.601Z,101606.03
2018-11-13T12:24:35.704Z,101605.92
2018-11-13T12:27:03.830Z,101605.08
2018-11-13T12:29:31.935Z,101593.37
2018-11-13T12:32:00.019Z,101597.25
2018-11-13T12:34:28.184Z,101595.07
2018-11-13T12:36:56.300Z,101603.28
2018-11-13T12:39:24.391Z,101611.99
2018-11-13T12:41:52.492Z,101604.92
2018-11-13T12:44:20.608Z,101607.27
2018-11-13T12:46:48.698Z,101602.89
2018-11-13T12:49:16.863Z,101603.43
2018-11-13T12:51:50.355Z,101609.27
2018-11-13T12:54:18.472Z,101606.09
2018-11-13T12:56:46.560Z,101602.72
2018-11-13T12:59:14.664Z,101599.39
2018-11-13T13:01:49.091Z,101595.91
2018-11-13T13:04:17.220Z,101597.91
2018-11-13T13:06:45.364Z,101602.73
2018-11-13T13:09:13.475Z,101606.09
2018-11-13T13:11:41.572Z,101617.05
2018-11-13T13:14:15.807Z,101610.17
2018-11-13T13:16:44.008Z,101607.00
2018-11-13T13:19:12.220Z,101609.69
2018-11-13T13:21:40.381Z,101613.80
2018-11-13T13:24:08.466Z,101607.50
2018-11-13T13:26:37.083Z,101612.19
2018-11-13T13:29:05.295Z,101610.27
2018-11-13T13:31:33.414Z,101617.78
2018-11-13T13:34:01.507Z,101600.20
2018-11-13T13:36:29.615Z,101609.27
2018-11-13T13:38:57.700Z,101612.57
2018-11-13T13:41:25.841Z,101614.52
2018-11-13T13:43:53.922Z,101617.98
2018-11-13T13:46:22.002Z,101615.78
2018-11-13T13:48:50.192Z,101619.83
2018-11-13T13:51:18.293Z,101621.25
2018-11-13T13:53:46.418Z,101629.07
2018-11-13T13:56:14.602Z,101638.20
2018-11-13T13:58:42.681Z,101635.98
2018-11-13T14:01:10.833Z,101633.44
2018-11-13T14:03:38.982Z,101645.69
2018-11-13T14:06:08.694Z,101633.59
2018-11-13T14:08:36.655Z,101650.63
2018-11-13T14:11:04.899Z,101645.09
2018-11-13T14:13:32.967Z,101649.09
2018-11-13T14:16:01.084Z,101643.75
2018-11-13T14:18:29.348Z,101651.83
2018-11-13T14:20:57.546Z,101648.22
2018-11-13T14:23:25.639Z,101657.17
2018-11-13T14:25:53.791Z,101659.36
2018-11-13T14:28:21.878Z,101663.39
2018-11-13T14:30:49.961Z,101671.03
2018-11-13T14:33:18.266Z,101668.38
2018-11-13T14:35:46.477Z,101667.39
2018-11-13T14:38:14.502Z,101679.02
2018-11-13T14:40:43.943Z,101674.56
2018-11-13T14:43:12.318Z,101680.70
2018-11-13T14:45:40.444Z,101690.11
2018-11-13T14:48:08.993Z,101685.95
2018-11-13T14:50:37.587Z,101687.98
2018-11-13T14:53:06.066Z,101695.86
2018-11-13T14:55:36.996Z,101699.05
2018-11-13T14:58:06.056Z,101708.02
2018-11-13T15:00:35.316Z,101712.20
2018-11-13T15:03:04.418Z,101714.73
2018-11-13T15:05:33.045Z,101715.54
2018-11-13T15:08:04.364Z,101723.66
2018-11-13T15:10:39.429Z,101717.97
2018-11-13T15:13:07.912Z,101714.07
2018-11-13T15:15:36.039Z,101724.66
2018-11-13T15:18:04.465Z,101715.28
2018-11-13T15:20:32.579Z,101722.24
2018-11-13T15:23:00.659Z,101736.56
2018-11-13T15:25:28.783Z,101746.98
2018-11-13T15:27:56.902Z,101750.22
2018-11-13T15:30:28.002Z,101753.39
2018-11-13T15:32:57.625Z,101754.08
2018-11-13T15:35:25.720Z,101768.97
2018-11-13T15:37:53.828Z,101764.01
2018-11-13T15:40:24.267Z,101773.23
2018-11-13T15:42:52.383Z,101786.22
2018-11-13T15:45:27.099Z,101787.03
2018-11-13T15:47:56.376Z,101798.45
2018-11-13T15:50:25.851Z,101799.52
2018-11-13T15:52:54.122Z,101808.08
2018-11-13T15:55:22.498Z,101813.75
2018-11-13T15:57:51.242Z,101806.37
2018-11-13T16:00:26.590Z,101812.94
2018-11-13T16:02:56.185Z,101813.62
2018-11-13T16:05:29.464Z,101819.97
2018-11-13T16:07:58.459Z,101820.46
2018-11-13T16:10:26.764Z,101818.99
2018-11-13T16:12:55.035Z,101819.48
2018-11-13T16:15:24.076Z,101820.66
2018-11-13T16:17:53.389Z,101829.73
2018-11-13T16:20:21.952Z,101829.56
2018-11-13T16:22:50.070Z,101836.94
2018-11-13T16:25:18.191Z,101840.61
2018-11-13T16:27:46.311Z,101843.47
2018-11-13T16:30:21.949Z,101847.14
2018-11-13T16:32:50.586Z,101853.84
2018-11-13T16:35:19.579Z,101857.20
2018-11-13T16:37:48.466Z,101859.06
2018-11-13T16:40:18.741Z,101854.87
2018-11-13T16:42:46.962Z,101860.90
2018-11-13T16:45:16.247Z,101860.54
2018-11-13T16:47:45.300Z,101867.41
2018-11-13T16:50:18.050Z,101866.06
2018-11-13T16:52:46.300Z,101872.94
2018-11-13T16:55:19.827Z,101866.05
2018-11-13T16:57:48.312Z,101876.28
2018-11-13T17:00:16.524Z,101874.59
2018-11-13T17:02:46.263Z,101873.08
2018-11-13T17:05:15.418Z,101878.63
2018-11-13T17:07:43.480Z,101877.44
2018-11-13T17:10:14.719Z,101885.61
2018-11-13T17:12:43.890Z,101892.17
2018-11-13T17:15:15.163Z,101880.39
2018-11-13T17:17:44.135Z,101886.42
2018-11-13T17:20:13.012Z,101888.75
2018-11-13T17:22:41.705Z,101885.74
2018-11-13T17:25:11.786Z,101886.22
2018-11-13T17:27:41.573Z,101891.72
2018-11-13T17:30:14.514Z,101900.23
2018-11-13T17:32:43.788Z,101900.06
2018-11-13T17:35:13.075Z,101898.85
2018-11-13T17:37:41.498Z,101904.68
2018-11-13T17:40:11.840Z,101904.53
2018-11-13T17:42:39.938Z,101907.71
2018-11-13T17:45:12.562Z,101918.20
2018-11-13T17:47:40.636Z,101912.54
2018-11-13T17:50:13.890Z,101916.34
2018-11-13T17:52:42.791Z,101924.87
2018-11-13T17:55:12.409Z,101920.32
2018-11-13T17:57:40.878Z,101920.95
2018-11-13T18:00:13.682Z,101926.56
2018-11-13T18:02:42.248Z,101931.94
2018-11-13T18:05:11.392Z,101929.62
2018-11-13T18:07:39.590Z,101932.88
2018-11-13T18:10:08.152Z,101936.83
2018-11-13T18:12:36.704Z,101939.86
2018-11-13T18:15:06.019Z,101945.70
2018-11-13T18:17:35.023Z,101948.73
2018-11-13T18:20:04.462Z,101947.37
2018-11-13T18:22:32.597Z,101952.77
2018-11-13T18:25:01.114Z,101953.51
2018-11-13T18:27:29.293Z,101959.37
2018-11-13T18:29:57.416Z,101960.19
2018-11-13T18:32:25.624Z,101961.26
2018-11-13T18:34:56.332Z,101961.43
2018-11-13T18:37:24.555Z,101963.55
2018-11-13T18:39:52.694Z,101959.55
2018-11-13T18:42:22.156Z,101956.30
2018-11-13T18:44:53.126Z,101956.38
2018-11-13T18:47:21.828Z,101950.16
2018-11-13T18:49:50.083Z,101950.59
2018-11-13T18:52:21.705Z,101958.66
2018-11-13T18:54:49.802Z,101958.84
2018-11-13T18:57:17.880Z,101954.64
2018-11-13T18:59:46.001Z,101956.79
2018-11-13T19:02:14.132Z,101962.45
2018-11-13T19:04:43.290Z,101962.43
2018-11-13T19:07:11.712Z,101966.97
2018-11-13T19:09:39.798Z,101965.93
2018-11-13T19:12:08.040Z,101964.06
2018-11-13T19:14:36.054Z,101969.83
2018-11-13T19:17:04.333Z,101976.83
2018-11-13T19:19:33.688Z,101979.45
2018-11-13T19:22:01.688Z,101978.73
2018-11-13T19:24:30.540Z,101976.16
2018-11-13T19:26:59.114Z,101980.64
2018-11-13T19:29:27.277Z,101979.16
2018-11-13T19:31:55.323Z,101983.31
2018-11-13T19:34:23.583Z,101988.34
2018-11-13T19:36:51.816Z,101993.80
2018-11-13T19:39:19.909Z,101991.91
2018-11-13T19:41:48.032Z,101992.11
2018-11-13T19:44:16.182Z,101996.95
2018-11-13T19:46:44.257Z,102000.53
2018-11-13T19:49:12.360Z,102002.14
2018-11-13T19:51:40.488Z,102005.07
2018-11-13T19:54:08.544Z,102010.52
2018-11-13T19:56:36.664Z,102014.05
2018-11-13T19:59:04.927Z,102016.39
2018-11-13T20:01:33.084Z,102024.97
2018-11-13T20:04:01.265Z,102015.80
2018-11-13T20:06:29.595Z,102018.80
2018-11-13T20:08:58.608Z,102021.37
2018-11-13T20:11:29.041Z,102018.20
2018-11-13T20:13:59.282Z,102026.02
2018-11-13T20:16:28.346Z,102022.91
2018-11-13T20:19:15.193Z,102018.80
2018-11-13T20:21:47.078Z,102017.89
2018-11-13T20:24:20.389Z,102021.68
2018-11-13T20:26:49.497Z,102026.13
2018-11-13T20:29:31.642Z,102025.48
2018-11-13T20:32:06.554Z,102035.12
2018-11-13T20:34:40.991Z,102031.73
2018-11-13T20:37:16.829Z,102032.59
2018-11-13T20:39:50.602Z,102034.19
2018-11-13T20:42:23.543Z,102034.56
2018-11-13T20:44:57.832Z,102034.28
2018-11-13T20:47:31.808Z,102036.63
2018-11-13T20:50:05.695Z,102035.03
2018-11-13T20:52:42.106Z,102041.92
2018-11-13T20:55:14.395Z,102052.59
2018-11-13T20:58:02.182Z,102056.05
2018-11-13T21:00:48.546Z,102056.59
2018-11-13T21:03:23.753Z,102055.17
2018-11-13T21:05:58.010Z,102059.17
2018-11-13T21:08:32.083Z,102058.36
2018-11-13T21:11:02.475Z,102051.20
2018-11-13T21:13:34.976Z,102051.23
2018-11-13T21:16:05.285Z,102052.09
2018-11-13T21:18:35.314Z,102057.06
2018-11-13T21:21:05.414Z,102055.94
2018-11-13T21:23:35.161Z,102060.79
2018-11-13T21:26:09.068Z,102061.64
2018-11-13T21:28:39.507Z,102062.76
2018-11-13T21:31:08.635Z,102061.58
2018-11-13T21:33:50.067Z,102070.61
2018-11-13T21:36:29.222Z,102059.82
2018-11-13T21:39:05.797Z,102070.55
2018-11-13T21:41:51.093Z,102068.13
2018-11-13T21:44:27.598Z,102076.96
2018-11-13T21:46:59.129Z,102075.69
2018-11-13T21:49:33.193Z,102073.94
2018-11-13T21:52:19.924Z,102079.64
2018-11-13T21:54:55.246Z,102080.69
2018-11-13T21:57:31.574Z,102075.52
2018-11-13T22:00:16.357Z,102085.38
2018-11-13T22:02:54.924Z,102098.15
2018-11-13T22:05:36.161Z,102099.62
2018-11-13T22:08:06.897Z,102101.37
2018-11-13T22:10:45.237Z,102095.73
2018-11-13T22:13:26.303Z,102095.44
2018-11-13T22:15:58.920Z,102095.19
2018-11-13T22:18:33.845Z,102090.45
2018-11-13T22:21:12.242Z,102094.05
2018-11-13T22:23:47.009Z,102093.66
2018-11-13T22:26:15.594Z,102092.89
2018-11-13T22:28:44.709Z,102089.66
2018-11-13T22:31:21.428Z,102096.42
2018-11-13T22:33:49.555Z,102094.59
2018-11-13T22:36:17.913Z,102092.64
2018-11-13T22:38:45.974Z,102088.90
2018-11-13T22:41:14.107Z,102087.23
2018-11-13T22:43:42.207Z,102090.48
2018-11-13T22:46:16.740Z,102094.47
2018-11-13T22:48:44.920Z,102093.44
2018-11-13T22:51:13.006Z,102093.20
2018-11-13T22:53:41.112Z,102087.98
2018-11-13T22:56:09.219Z,102091.17
2018-11-13T22:58:37.374Z,102089.22
2018-11-13T23:01:06.083Z,102094.05
2018-11-13T23:03:34.125Z,102096.44
2018-11-13T23:06:02.211Z,102084.94
2018-11-13T23:08:30.303Z,102100.38
2018-11-13T23:11:02.567Z,102092.13
2018-11-13T23:13:31.066Z,102105.50
2018-11-13T23:15:59.207Z,102100.63
2018-11-13T23:18:27.805Z,102102.50
2018-11-13T23:20:55.926Z,102100.85
2018-11-13T23:23:24.020Z,102109.09
2018-11-13T23:25:53.078Z,102100.30
2018-11-13T23:28:21.151Z,102099.11
2018-11-13T23:30:49.246Z,102104.42
2018-11-13T23:33:19.780Z,102095.24
2018-11-13T23:35:51.916Z,102097.17
2018-11-13T23:38:24.266Z,102101.23
2018-11-13T23:40:59.207Z,102098.45
2018-11-13T23:43:29.230Z,102095.64
2018-11-13T23:45:58.457Z,102096.57
2018-11-13T23:48:32.008Z,102102.44
2018-11-13T23:51:04.345Z,102105.98
2018-11-13T23:53:34.909Z,102110.68
2018-11-13T23:56:07.320Z,102110.47
2018-11-13T23:58:37.468Z,102112.91
